Time;durP1;ratioP1;P1;durP2;ratioP2;P2;SDS_P1;SDS_P2;PMS_P1;PMS_P2;Temp;Humidity;BMP_temperature;BMP_pressure;BME280_temperature;BME280_humidity;BME280_pressure;Samples;Min_cycle;Max_cycle;Signal;HPM_P1;HPM_P2
2024/01/24 00:01:48;;;;;;;0.25;0.15;;;13.30;99.90;;;;;;5000505;23;20186;-95
2024/01/24 00:03:49;;;;;;;0.90;0.28;;;13.30;99.90;;;;;;5024496;23;20158;-94
2024/01/24 00:05:50;;;;;;;0.90;0.20;;;13.30;99.90;;;;;;4999912;23;20650;-93
2024/01/24 00:07:54;;;;;;;3.58;0.68;;;13.30;99.90;;;;;;5001358;23;20155;-95
2024/01/24 00:09:55;;;;;;;0.25;0.20;;;13.30;99.90;;;;;;5000454;23;20155;-96
2024/01/24 00:12:06;;;;;;;2.75;0.30;;;13.40;99.90;;;;;;5002841;23;20238;-94
2024/01/24 00:14:07;;;;;;;0.28;0.15;;;13.30;99.90;;;;;;5024223;23;20158;-94
2024/01/24 00:16:11;;;;;;;0.10;0.10;;;13.30;99.90;;;;;;5024893;23;20175;-93
2024/01/24 00:18:11;;;;;;;0.10;0.10;;;13.30;99.90;;;;;;5001475;23;20155;-95
2024/01/24 00:20:15;;;;;;;0.17;0.10;;;13.40;99.90;;;;;;5001058;23;20160;-94
2024/01/24 00:22:16;;;;;;;1.38;0.25;;;13.40;99.90;;;;;;5024193;23;20155;-94
2024/01/24 00:24:19;;;;;;;0.50;0.30;;;13.50;99.90;;;;;;5001057;23;20244;-95
2024/01/24 00:26:20;;;;;;;0.17;0.10;;;13.40;99.90;;;;;;5000444;23;20176;-94
2024/01/24 00:28:32;;;;;;;2.00;0.45;;;13.40;99.90;;;;;;5024784;23;20159;-95
2024/01/24 00:30:33;;;;;;;1.65;0.20;;;13.30;99.90;;;;;;5000395;23;20159;-96
2024/01/24 00:32:34;;;;;;;0.60;0.30;;;13.40;99.90;;;;;;5002067;23;20242;-94
2024/01/24 00:34:39;;;;;;;1.17;0.35;;;13.40;99.90;;;;;;5046798;23;20189;-93
2024/01/24 00:36:41;;;;;;;1.70;0.55;;;13.40;99.90;;;;;;5023069;23;20685;-94
2024/01/24 00:38:42;;;;;;;0.20;0.20;;;13.50;99.90;;;;;;5022881;23;20158;-92
2024/01/24 00:40:43;;;;;;;0.00;0.00;;;13.40;99.90;;;;;;5046835;23;20197;-94
2024/01/24 00:42:49;;;;;;;0.60;0.15;;;13.30;99.90;;;;;;5022460;23;20159;-94
2024/01/24 00:44:55;;;;;;;1.00;0.35;;;13.30;99.90;;;;;;5023127;23;20155;-94
2024/01/24 00:46:58;;;;;;;0.00;0.00;;;13.20;99.90;;;;;;5023697;23;20179;-95
2024/01/24 00:49:00;;;;;;;1.08;0.20;;;13.20;99.90;;;;;;5023051;23;20189;-94
2024/01/24 00:51:01;;;;;;;0.65;0.20;;;13.10;99.90;;;;;;5022662;23;20233;-94
2024/01/24 00:53:05;;;;;;;0.35;0.20;;;13.10;99.90;;;;;;5021857;23;20159;-93
2024/01/24 00:55:06;;;;;;;1.17;0.30;;;13.10;99.90;;;;;;5021749;23;20211;-94
2024/01/24 00:57:10;;;;;;;0.20;0.20;;;12.90;99.90;;;;;;5046522;23;20275;-93
2024/01/24 00:59:11;;;;;;;0.40;0.13;;;12.90;99.90;;;;;;5022748;23;20150;-94
2024/01/24 01:01:20;;;;;;;0.03;0.03;;;12.90;99.90;;;;;;5046891;23;20157;-93
2024/01/24 01:03:21;;;;;;;0.20;0.20;;;12.90;99.90;;;;;;5021496;23;20227;-93
2024/01/24 01:05:22;;;;;;;0.20;0.20;;;12.90;99.90;;;;;;5022410;23;20501;-95
2024/01/24 01:07:23;;;;;;;0.35;0.20;;;12.90;99.90;;;;;;5022450;23;20518;-95
2024/01/24 01:09:23;;;;;;;0.03;0.03;;;12.90;99.90;;;;;;5046262;23;20161;-94
2024/01/24 01:11:24;;;;;;;0.90;0.30;;;12.80;99.90;;;;;;5045723;23;20154;-94
2024/01/24 01:13:25;;;;;;;0.63;0.40;;;12.80;99.90;;;;;;5022038;23;20158;-94
2024/01/24 01:15:26;;;;;;;1.45;0.30;;;12.80;99.90;;;;;;5045570;23;20273;-94
2024/01/24 01:17:27;;;;;;;0.40;0.20;;;12.80;99.90;;;;;;5021364;23;20681;-93
2024/01/24 01:19:31;;;;;;;0.52;0.40;;;12.80;99.90;;;;;;5022843;23;20159;-94
2024/01/24 01:21:32;;;;;;;0.80;0.20;;;12.70;99.90;;;;;;5022062;23;20854;-94
2024/01/24 01:23:33;;;;;;;0.20;0.13;;;12.70;99.90;;;;;;5045054;23;20177;-95
2024/01/24 01:25:33;;;;;;;3.38;0.25;;;12.60;99.90;;;;;;5021026;23;20166;-94
2024/01/24 01:27:34;;;;;;;0.65;0.20;;;12.60;99.90;;;;;;5021073;23;20139;-94
2024/01/24 01:29:35;;;;;;;0.93;0.40;;;12.60;99.90;;;;;;5021423;23;20169;-93
2024/01/24 01:31:36;;;;;;;0.65;0.30;;;12.60;99.90;;;;;;5021029;23;20147;-93
2024/01/24 01:33:37;;;;;;;0.50;0.25;;;12.50;99.90;;;;;;5044960;23;20197;-95
2024/01/24 01:35:38;;;;;;;0.40;0.30;;;12.60;99.90;;;;;;5021855;23;20270;-93
2024/01/24 01:37:41;;;;;;;0.73;0.20;;;12.40;99.90;;;;;;5021687;23;20147;-94
2024/01/24 01:39:42;;;;;;;3.22;0.20;;;12.40;99.90;;;;;;5045318;23;20154;-94
2024/01/24 01:41:46;;;;;;;0.28;0.05;;;12.50;99.90;;;;;;5044989;23;20260;-94
2024/01/24 01:43:47;;;;;;;0.35;0.20;;;12.50;99.90;;;;;;5021204;23;20582;-93
2024/01/24 01:45:48;;;;;;;0.63;0.30;;;12.50;99.90;;;;;;5044778;23;20707;-94
2024/01/24 01:47:51;;;;;;;0.80;0.20;;;12.60;99.90;;;;;;5021097;23;20155;-94
2024/01/24 01:49:52;;;;;;;0.60;0.40;;;12.50;99.90;;;;;;5021406;23;20155;-94
2024/01/24 01:51:53;;;;;;;0.28;0.22;;;12.50;99.90;;;;;;5044491;23;20162;-93
2024/01/24 01:53:55;;;;;;;3.03;0.50;;;12.50;99.90;;;;;;5044869;23;20241;-93
2024/01/24 01:55:57;;;;;;;0.35;0.20;;;12.50;99.90;;;;;;5020582;23;20590;-93
2024/01/24 01:57:59;;;;;;;0.45;0.20;;;12.50;99.90;;;;;;5020776;23;20158;-93
2024/01/24 02:00:00;;;;;;;0.10;0.10;;;12.50;99.90;;;;;;5044514;23;20294;-92
2024/01/24 02:02:01;;;;;;;0.38;0.17;;;12.40;99.90;;;;;;5020598;23;20547;-92
2024/01/24 02:04:03;;;;;;;0.38;0.20;;;12.40;99.90;;;;;;5044382;23;20160;-92
2024/01/24 02:06:05;;;;;;;1.20;0.30;;;12.50;99.90;;;;;;5020888;23;20659;-94
2024/01/24 02:08:07;;;;;;;0.30;0.20;;;12.60;99.90;;;;;;5044435;23;20158;-93
2024/01/24 02:10:08;;;;;;;2.53;0.22;;;12.60;99.90;;;;;;5020549;23;20163;-93
2024/01/24 02:12:09;;;;;;;0.10;0.08;;;12.60;99.90;;;;;;5020280;23;20162;-94
2024/01/24 02:14:12;;;;;;;0.20;0.20;;;12.60;99.90;;;;;;5043927;23;20183;-94
2024/01/24 02:16:13;;;;;;;1.33;0.15;;;12.60;99.90;;;;;;5020770;23;20295;-92
2024/01/24 02:18:14;;;;;;;0.25;0.13;;;12.50;99.90;;;;;;5020323;23;20594;-93
2024/01/24 02:20:18;;;;;;;0.63;0.10;;;12.40;99.90;;;;;;5020272;23;20151;-92
2024/01/24 02:22:19;;;;;;;0.60;0.25;;;12.50;99.90;;;;;;5044375;23;20166;-94
2024/01/24 02:24:19;;;;;;;0.57;0.20;;;12.50;99.90;;;;;;5044550;23;20157;-92
2024/01/24 02:26:20;;;;;;;0.65;0.20;;;12.50;99.90;;;;;;5020350;23;20181;-93
2024/01/24 02:28:21;;;;;;;0.10;0.10;;;12.50;99.90;;;;;;5020484;23;20163;-93
2024/01/24 02:30:22;;;;;;;0.10;0.10;;;12.60;99.90;;;;;;5020389;23;20305;-94
2024/01/24 02:32:25;;;;;;;0.35;0.10;;;12.60;99.90;;;;;;5020189;23;20254;-95
2024/01/24 02:34:26;;;;;;;0.20;0.10;;;12.70;99.90;;;;;;4996470;23;20194;-92
2024/01/24 02:36:27;;;;;;;1.27;0.15;;;12.60;99.90;;;;;;5020703;23;20174;-94
2024/01/24 02:38:28;;;;;;;0.10;0.10;;;12.60;99.90;;;;;;4996613;23;20160;-93
2024/01/24 02:40:28;;;;;;;0.10;0.10;;;12.60;99.90;;;;;;4996164;23;20616;-93
2024/01/24 02:42:29;;;;;;;0.00;0.00;;;12.70;99.90;;;;;;4996491;23;20579;-93
2024/01/24 02:44:30;;;;;;;1.05;0.10;;;12.70;99.90;;;;;;4996772;23;20162;-92
2024/01/24 02:46:31;;;;;;;0.10;0.00;;;12.70;99.90;;;;;;4996308;23;20179;-93
2024/01/24 02:48:32;;;;;;;0.00;0.00;;;12.60;99.90;;;;;;4996339;23;20234;-92
2024/01/24 02:50:33;;;;;;;0.35;0.10;;;12.60;99.90;;;;;;4996275;23;20211;-94
2024/01/24 02:52:34;;;;;;;1.85;0.20;;;12.60;99.90;;;;;;4996667;23;20158;-92
2024/01/24 02:54:38;;;;;;;0.10;0.10;;;12.60;99.90;;;;;;4996402;23;20199;-93
2024/01/24 02:56:39;;;;;;;0.20;0.10;;;12.50;99.90;;;;;;4996644;23;20176;-94
2024/01/24 02:58:40;;;;;;;0.00;0.00;;;12.60;99.90;;;;;;5020209;23;20163;-94
2024/01/24 03:00:41;;;;;;;0.10;0.00;;;12.50;99.90;;;;;;5020262;23;20183;-94
2024/01/24 03:02:42;;;;;;;0.35;0.20;;;12.60;99.90;;;;;;4997452;23;20159;-94
2024/01/24 03:04:43;;;;;;;0.28;0.20;;;12.60;99.90;;;;;;4997008;23;20186;-94
2024/01/24 03:06:44;;;;;;;3.53;0.08;;;12.70;99.90;;;;;;5020948;23;20474;-94
2024/01/24 03:08:56;;;;;;;0.15;0.15;;;12.80;99.90;;;;;;4997384;23;20147;-92
2024/01/24 03:10:57;;;;;;;0.00;0.00;;;12.80;99.90;;;;;;4996902;23;20159;-93
2024/01/24 03:12:58;;;;;;;0.50;0.10;;;12.80;99.90;;;;;;5020395;23;20151;-92
2024/01/24 03:15:00;;;;;;;0.00;0.00;;;12.80;99.90;;;;;;4996774;23;20199;-92
2024/01/24 03:17:01;;;;;;;0.00;0.00;;;12.90;99.90;;;;;;4996996;23;20250;-94
2024/01/24 03:19:03;;;;;;;0.08;0.05;;;12.90;99.90;;;;;;4996319;23;20563;-94
2024/01/24 03:21:09;;;;;;;0.50;0.20;;;12.90;99.90;;;;;;4996621;23;20158;-93
2024/01/24 03:23:09;;;;;;;0.00;0.00;;;12.80;99.90;;;;;;5020220;23;20559;-93
2024/01/24 03:25:12;;;;;;;0.00;0.00;;;12.80;99.90;;;;;;5019949;23;20151;-91
2024/01/24 03:27:13;;;;;;;13.65;0.55;;;12.80;99.90;;;;;;4996093;23;20175;-94
2024/01/24 03:29:14;;;;;;;3.20;0.28;;;12.80;99.90;;;;;;5020203;23;20151;-93
2024/01/24 03:31:15;;;;;;;0.32;0.00;;;12.80;99.90;;;;;;5019871;23;20173;-93
2024/01/24 03:33:16;;;;;;;2.45;0.40;;;12.80;99.90;;;;;;4996565;23;20175;-93
2024/01/24 03:35:17;;;;;;;2.65;0.88;;;12.80;99.90;;;;;;5020304;23;20294;-93
2024/01/24 03:37:18;;;;;;;0.20;0.10;;;12.80;99.90;;;;;;4996327;23;20179;-93
2024/01/24 03:39:21;;;;;;;0.10;0.10;;;12.80;99.90;;;;;;4996826;23;20159;-95
2024/01/24 03:41:22;;;;;;;1.60;0.13;;;12.80;99.90;;;;;;4997205;23;20158;-93
2024/01/24 03:43:23;;;;;;;3.10;0.77;;;12.90;99.90;;;;;;4998414;23;20610;-94
2024/01/24 03:45:24;;;;;;;1.00;0.32;;;13.00;99.90;;;;;;5021101;23;20158;-96
2024/01/24 03:47:25;;;;;;;0.93;0.22;;;13.10;99.90;;;;;;5020963;23;20178;-94
2024/01/24 03:49:26;;;;;;;6.18;0.30;;;13.00;99.90;;;;;;5021190;23;20147;-93
2024/01/24 03:51:28;;;;;;;1.33;0.30;;;12.90;99.90;;;;;;5021202;23;20155;-94
2024/01/24 03:53:29;;;;;;;2.72;0.40;;;12.80;99.90;;;;;;4997289;23;20152;-93
2024/01/24 03:55:30;;;;;;;0.47;0.13;;;12.80;99.90;;;;;;5021272;23;20565;-93
2024/01/24 03:57:31;;;;;;;2.25;0.47;;;12.80;99.90;;;;;;4999179;23;20182;-94
2024/01/24 03:59:37;;;;;;;3.10;0.73;;;12.80;99.90;;;;;;4998832;23;20156;-94
2024/01/24 04:01:38;;;;;;;6.32;0.17;;;12.80;99.90;;;;;;4997172;23;20167;-94
2024/01/24 04:03:38;;;;;;;0.30;0.20;;;12.70;99.90;;;;;;4998450;23;20159;-94
2024/01/24 04:05:39;;;;;;;2.67;0.10;;;12.70;99.90;;;;;;4998249;23;20164;-95
2024/01/24 04:07:40;;;;;;;2.20;0.65;;;12.70;99.90;;;;;;5021791;23;20567;-93
2024/01/24 04:09:42;;;;;;;3.50;0.60;;;12.70;99.90;;;;;;4997556;23;20156;-95
2024/01/24 04:11:43;;;;;;;7.65;0.43;;;12.80;99.90;;;;;;4999557;23;20538;-95
2024/01/24 04:13:44;;;;;;;1.05;0.50;;;12.80;99.90;;;;;;4999729;23;20164;-94
2024/01/24 04:15:45;;;;;;;1.48;0.38;;;12.80;99.90;;;;;;4998313;23;20198;-94
2024/01/24 04:17:46;;;;;;;3.55;0.60;;;12.70;99.90;;;;;;4998512;23;20539;-93
2024/01/24 04:19:47;;;;;;;1.88;0.63;;;12.70;99.90;;;;;;4999117;23;20514;-94
2024/01/24 04:21:47;;;;;;;4.05;0.52;;;12.70;99.90;;;;;;4999140;23;20183;-92
2024/01/24 04:23:49;;;;;;;5.90;1.48;;;12.60;99.90;;;;;;4998936;23;20155;-94
2024/01/24 04:25:51;;;;;;;12.57;1.17;;;12.70;99.90;;;;;;5023427;23;20234;-93
2024/01/24 04:27:52;;;;;;;3.92;0.75;;;12.70;99.90;;;;;;4998951;23;20179;-95
2024/01/24 04:29:55;;;;;;;3.30;0.55;;;12.70;99.90;;;;;;4999054;23;20490;-92
2024/01/24 04:31:59;;;;;;;7.05;1.05;;;12.70;99.90;;;;;;4999484;23;20276;-93
2024/01/24 04:34:00;;;;;;;12.75;1.67;;;12.70;99.90;;;;;;5018169;23;20171;-94
2024/01/24 04:36:01;;;;;;;5.85;0.85;;;12.70;99.90;;;;;;5047335;23;20253;-94
2024/01/24 04:38:02;;;;;;;14.70;1.60;;;12.80;99.90;;;;;;5022857;23;20205;-93
2024/01/24 04:40:04;;;;;;;8.38;1.17;;;12.80;99.90;;;;;;5023463;23;20226;-94
2024/01/24 04:42:05;;;;;;;7.07;1.52;;;12.70;99.90;;;;;;5023360;23;20601;-93
2024/01/24 04:44:06;;;;;;;15.07;1.95;;;12.80;99.90;;;;;;5024213;23;20213;-95
2024/01/24 04:46:14;;;;;;;3.97;0.80;;;12.70;99.90;;;;;;5024248;23;20211;-93
2024/01/24 04:48:15;;;;;;;7.97;1.75;;;12.70;99.90;;;;;;5023275;23;20154;-94
2024/01/24 04:50:16;;;;;;;8.48;0.98;;;12.70;99.90;;;;;;5024078;23;20189;-94
2024/01/24 04:52:17;;;;;;;8.57;1.23;;;12.70;99.90;;;;;;5023068;23;20198;-95
2024/01/24 04:54:18;;;;;;;7.43;1.92;;;12.60;99.90;;;;;;5021878;23;20210;-94
2024/01/24 04:56:18;;;;;;;2.78;0.63;;;12.60;99.90;;;;;;5022354;23;20578;-94
2024/01/24 04:58:19;;;;;;;10.73;1.67;;;12.60;99.90;;;;;;5046826;23;20150;-94
2024/01/24 05:00:20;;;;;;;10.35;2.10;;;12.60;99.90;;;;;;5046661;23;20650;-94
2024/01/24 05:02:22;;;;;;;11.88;1.55;;;12.60;99.90;;;;;;5026347;23;20147;-93
2024/01/24 05:04:23;;;;;;;4.57;0.85;;;12.60;99.90;;;;;;5025576;23;20151;-94
2024/01/24 05:06:24;;;;;;;10.18;1.20;;;12.60;99.90;;;;;;5024501;23;20527;-94
2024/01/24 05:08:25;;;;;;;11.80;1.33;;;12.60;99.90;;;;;;5046931;23;20178;-95
2024/01/24 05:10:30;;;;;;;13.25;2.45;;;12.60;99.90;;;;;;5023771;23;20151;-94
2024/01/24 05:12:31;;;;;;;8.88;1.20;;;12.60;99.90;;;;;;5022699;23;20569;-94
2024/01/24 05:14:33;;;;;;;13.73;3.17;;;12.50;99.90;;;;;;5049307;23;20264;-93
2024/01/24 05:16:39;;;;;;;12.73;1.95;;;12.60;99.90;;;;;;5022848;23;20182;-95
2024/01/24 05:18:41;;;;;;;13.40;1.98;;;12.60;99.90;;;;;;5023743;23;20151;-94
2024/01/24 05:20:42;;;;;;;15.05;1.58;;;12.50;99.90;;;;;;5022849;23;20161;-94
2024/01/24 05:22:44;;;;;;;14.57;1.58;;;12.60;99.90;;;;;;5023440;23;20607;-94
2024/01/24 05:24:45;;;;;;;10.88;1.80;;;12.40;99.90;;;;;;5023149;23;20162;-95
2024/01/24 05:26:49;;;;;;;13.35;2.67;;;12.40;99.90;;;;;;5022952;23;20233;-94
2024/01/24 05:28:50;;;;;;;16.42;2.80;;;12.40;99.90;;;;;;5047297;23;20249;-94
2024/01/24 05:30:51;;;;;;;5.22;0.73;;;12.30;99.90;;;;;;5023499;23;20158;-94
2024/01/24 05:32:58;;;;;;;14.05;1.48;;;12.30;99.90;;;;;;5047318;23;20704;-94
2024/01/24 05:35:01;;;;;;;7.32;1.23;;;12.30;99.90;;;;;;4999662;23;20266;-94
2024/01/24 05:37:05;;;;;;;12.30;2.22;;;12.30;99.90;;;;;;5048642;23;20178;-94
2024/01/24 05:39:06;;;;;;;7.35;1.20;;;12.30;99.90;;;;;;5023931;23;20151;-93
2024/01/24 05:41:16;;;;;;;11.20;2.03;;;12.30;99.90;;;;;;5048894;23;20458;-94
2024/01/24 05:43:22;;;;;;;5.70;1.25;;;12.30;99.90;;;;;;5047905;23;20158;-95
2024/01/24 05:45:23;;;;;;;15.70;3.35;;;12.30;99.90;;;;;;5047394;23;20154;-95
2024/01/24 05:47:24;;;;;;;16.80;2.80;;;12.40;99.90;;;;;;5022979;23;20179;-95
2024/01/24 05:49:27;;;;;;;8.65;1.55;;;12.30;99.90;;;;;;5050665;23;20166;-93
2024/01/24 05:51:28;;;;;;;7.43;1.65;;;12.40;99.90;;;;;;5027272;23;20166;-94
2024/01/24 05:53:29;;;;;;;16.40;2.03;;;12.30;99.90;;;;;;5026713;23;20151;-96
2024/01/24 05:55:33;;;;;;;18.27;2.00;;;12.30;99.90;;;;;;5049860;23;20197;-94
2024/01/24 05:57:35;;;;;;;8.35;1.48;;;12.30;99.90;;;;;;5026674;23;20498;-94
2024/01/24 05:59:36;;;;;;;8.82;2.47;;;12.30;99.90;;;;;;5024826;23;20155;-94
2024/01/24 06:01:37;;;;;;;21.50;2.35;;;12.20;99.90;;;;;;5049786;23;20492;-94
2024/01/24 06:03:44;;;;;;;16.85;2.38;;;12.20;99.90;;;;;;5026179;23;20183;-94
2024/01/24 06:05:48;;;;;;;5.55;1.67;;;12.20;99.90;;;;;;5031426;23;20158;-95
2024/01/24 06:08:31;;;;;;;8.52;2.03;;;12.20;99.90;;;;;;5035275;23;20175;-94
2024/01/24 06:11:27;;;;;;;16.85;1.88;;;12.20;99.90;;;;;;5020264;23;20489;-94
2024/01/24 06:17:05;;;;;;;10.77;2.10;;;12.20;99.90;;;;;;4964479;23;20192;-94
2024/01/24 06:19:29;;;;;;;15.90;1.60;;;12.20;99.90;;;;;;5054646;23;20159;-94
2024/01/24 06:22:00;;;;;;;12.93;2.30;;;12.20;99.90;;;;;;5011161;23;20285;-95
2024/01/24 06:24:15;;;;;;;10.05;1.83;;;12.20;99.90;;;;;;4974253;23;20183;-95
2024/01/24 06:27:23;;;;;;;15.35;1.55;;;12.20;99.90;;;;;;5000077;23;20175;-95
2024/01/24 06:30:07;;;;;;;11.82;1.88;;;12.30;99.90;;;;;;4996757;23;20155;-95
2024/01/24 06:32:42;;;;;;;10.00;2.45;;;12.30;99.90;;;;;;4990017;23;20184;-94
2024/01/24 06:34:59;;;;;;;13.73;1.80;;;12.30;99.90;;;;;;5009717;23;20310;-94
2024/01/24 06:37:35;;;;;;;12.77;2.10;;;12.30;99.90;;;;;;5011498;23;20211;-95
2024/01/24 06:46:08;;;;;;;37.28;11.40;;;12.10;99.90;;;;;;4978020;23;20243;-94
2024/01/24 06:48:53;;;;;;;24.63;4.75;;;12.00;99.90;;;;;;4987313;23;20160;-94
2024/01/24 06:51:45;;;;;;;24.75;10.68;;;12.00;99.90;;;;;;4968940;23;20163;-95
2024/01/24 06:54:17;;;;;;;;;;;;;;;;;;;;;
2024/01/24 06:57:01;;;;;;;27.58;7.80;;;12.10;99.90;;;;;;4891108;24;20276;-95
2024/01/24 06:59:47;;;;;;;28.83;8.00;;;12.10;99.90;;;;;;4945456;24;20169;-96
2024/01/24 07:02:39;;;;;;;19.30;3.30;;;12.00;99.90;;;;;;5021247;23;20153;-95
2024/01/24 07:05:11;;;;;;;10.73;4.32;;;12.00;99.90;;;;;;5013318;23;20159;-94
2024/01/24 07:11:26;;;;;;;;;;;;;;;;;;;;;
2024/01/24 07:14:55;;;;;;;;;;;;;;;;;;;;;
2024/01/24 07:21:30;;;;;;;8.50;2.35;;;12.00;99.90;;;;;;5013071;23;20143;-95
2024/01/24 07:24:45;;;;;;;14.95;2.95;;;11.90;99.90;;;;;;4965247;24;20160;-96
2024/01/24 07:27:29;;;;;;;16.45;2.65;;;11.80;99.90;;;;;;4894503;24;20216;-95
2024/01/24 07:30:36;;;;;;;18.50;4.18;;;11.90;99.90;;;;;;4912769;24;20221;-96
2024/01/24 07:33:06;;;;;;;19.38;2.05;;;11.80;99.90;;;;;;4957901;24;20175;-95
2024/01/24 07:36:12;;;;;;;17.58;2.00;;;11.90;99.90;;;;;;4972875;23;20254;-95
2024/01/24 07:38:57;;;;;;;20.60;3.95;;;11.80;99.90;;;;;;4896980;24;20150;-96
2024/01/24 07:42:20;;;;;;;;;;;;;;;;;;;;;
2024/01/24 07:44:57;;;;;;;11.68;2.58;;;11.60;99.90;;;;;;4855664;24;20160;-94
2024/01/24 07:47:05;;;;;;;32.08;4.85;;;11.70;99.90;;;;;;4853917;24;20259;-95
2024/01/24 07:49:35;;;;;;;21.90;4.45;;;11.80;99.90;;;;;;4875655;24;20227;-94
2024/01/24 07:52:36;;;;;;;;;;;;;;;;;;;;;
2024/01/24 07:55:32;;;;;;;20.92;4.97;;;11.70;99.90;;;;;;4790078;24;20244;-94
2024/01/24 08:02:43;;;;;;;26.00;3.28;;;11.60;99.90;;;;;;4790714;24;20150;-96
2024/01/24 08:08:19;;;;;;;9.82;1.88;;;11.70;99.90;;;;;;4810845;24;20245;-96
2024/01/24 08:10:42;;;;;;;14.75;2.78;;;11.70;99.90;;;;;;4810623;24;20172;-95
2024/01/24 08:16:41;;;;;;;22.90;3.50;;;11.90;99.90;;;;;;4788639;24;20186;-94
2024/01/24 08:25:45;;;;;;;11.73;3.35;;;11.70;99.90;;;;;;4787012;24;20174;-95
2024/01/24 08:37:45;;;;;;;12.38;2.17;;;11.60;99.90;;;;;;4715536;25;20348;-94
2024/01/24 08:44:22;;;;;;;;;;;;;;;;;;;;;
2024/01/24 08:47:16;;;;;;;;;;;;;;;;;;;;;
2024/01/24 08:53:20;;;;;;;27.55;4.57;;;11.70;99.90;;;;;;4746295;25;20167;-96
2024/01/24 08:56:05;;;;;;;23.30;5.28;;;11.70;99.90;;;;;;4705994;25;20265;-96
2024/01/24 08:58:34;;;;;;;12.93;4.68;;;11.70;99.90;;;;;;4718555;25;20168;-95
2024/01/24 09:01:21;;;;;;;31.48;6.40;;;11.70;99.90;;;;;;4746351;25;20174;-96
2024/01/24 09:04:31;;;;;;;25.45;4.13;;;11.80;99.90;;;;;;4744537;25;20168;-95
2024/01/24 09:13:30;;;;;;;;;;;;;;;;;;;;;
2024/01/24 09:19:12;;;;;;;20.98;1.75;;;11.50;99.90;;;;;;4768328;24;20234;-93
2024/01/24 09:22:47;;;;;;;21.13;2.65;;;11.50;99.90;;;;;;4802417;24;20169;-96
2024/01/24 09:25:40;;;;;;;9.23;2.38;;;11.70;99.90;;;;;;4789102;24;20166;-95
2024/01/24 09:34:28;;;;;;;;;;;;;;;;;;;;;
2024/01/24 09:41:03;;;;;;;23.60;4.22;;;11.90;99.90;;;;;;5072042;23;20154;-94
2024/01/24 09:47:10;;;;;;;12.95;2.72;;;11.80;99.90;;;;;;4987019;23;20180;-96
2024/01/24 09:50:05;;;;;;;18.83;3.20;;;11.90;99.90;;;;;;4940881;24;20154;-95
2024/01/24 09:56:01;;;;;;;;;;;;;;;;;;;;;
2024/01/24 10:01:56;;;;;;;20.85;3.17;;;12.00;99.90;;;;;;4917055;24;20162;-95
2024/01/24 10:04:07;;;;;;;9.40;2.08;;;11.90;99.90;;;;;;4892776;24;20244;-94
2024/01/24 10:06:13;;;;;;;22.60;2.70;;;11.90;99.90;;;;;;4915557;24;20178;-94
2024/01/24 10:08:36;;;;;;;20.52;3.25;;;12.10;99.90;;;;;;4919065;24;20201;-94
2024/01/24 10:11:26;;;;;;;17.73;3.15;;;12.10;99.90;;;;;;4918751;24;20187;-95
2024/01/24 10:14:13;;;;;;;;;;;;;;;;;;;;;
2024/01/24 10:26:11;;;;;;;13.40;2.00;;;12.20;99.90;;;;;;4783093;24;20284;-94
2024/01/24 10:28:19;;;;;;;24.73;3.63;;;12.00;99.90;;;;;;4785256;24;20169;-93
2024/01/24 10:36:42;;;;;;;28.95;7.55;;;12.30;99.90;;;;;;4762882;25;20206;-95
2024/01/24 10:39:55;;;;;;;17.02;3.25;;;12.30;99.90;;;;;;4934951;23;20194;-94
2024/01/24 10:45:36;;;;;;;23.35;3.13;;;12.50;99.90;;;;;;4849275;24;20168;-94
2024/01/24 10:48:40;;;;;;;17.35;2.45;;;12.50;99.90;;;;;;4813077;24;20226;-94
2024/01/24 10:51:36;;;;;;;21.92;5.53;;;12.60;99.90;;;;;;4770780;24;20166;-95
2024/01/24 10:54:55;;;;;;;;;;;;;;;;;;;;;
2024/01/24 10:57:42;;;;;;;15.98;3.78;;;12.40;99.90;;;;;;4875110;24;20266;-95
2024/01/24 11:03:13;;;;;;;;;;;;;;;;;;;;;
2024/01/24 11:06:18;;;;;;;23.00;5.47;;;12.70;99.90;;;;;;4908398;23;20146;-94
2024/01/24 11:12:09;;;;;;;15.25;4.57;;;12.90;99.90;;;;;;4988114;23;20571;-96
2024/01/24 11:17:58;;;;;;;25.13;2.50;;;12.80;99.90;;;;;;4943400;23;20199;-95
2024/01/24 11:20:56;;;;;;;17.67;3.67;;;12.90;99.90;;;;;;4963544;24;20237;-95
2024/01/24 11:23:54;;;;;;;27.45;3.40;;;12.60;99.90;;;;;;4951213;23;20192;-94
2024/01/24 11:30:29;;;;;;;;;;;;;;;;;;;;;
2024/01/24 11:33:29;;;;;;;10.35;4.03;;;12.90;99.90;;;;;;4972624;23;20229;-95
2024/01/24 11:35:55;;;;;;;17.45;2.72;;;12.80;99.90;;;;;;4929458;24;20219;-94
2024/01/24 11:38:29;;;;;;;;;;;;;;;;;;;;;
2024/01/24 11:40:49;;;;;;;;;;;;;;;;;;;;;
2024/01/24 11:47:51;;;;;;;19.92;2.50;;;12.60;99.90;;;;;;4961853;24;20349;-94
2024/01/24 11:50:01;;;;;;;10.45;2.08;;;12.50;99.90;;;;;;4958660;24;20172;-95
2024/01/24 11:52:07;;;;;;;14.15;1.90;;;12.60;99.90;;;;;;4961622;24;20255;-94
2024/01/24 11:54:08;;;;;;;15.13;2.75;;;12.70;99.90;;;;;;5081393;23;20154;-93
2024/01/24 11:56:58;;;;;;;;;;;;;;;;;;;;;
2024/01/24 11:59:41;;;;;;;17.55;3.50;;;12.70;99.90;;;;;;5067996;23;20165;-94
2024/01/24 12:01:58;;;;;;;22.20;2.00;;;12.80;99.90;;;;;;5020807;23;20169;-93
2024/01/24 12:08:48;;;;;;;12.35;2.33;;;13.00;99.90;;;;;;4917665;24;20669;-95
2024/01/24 12:11:12;;;;;;;22.40;2.17;;;13.00;99.90;;;;;;4887897;24;20178;-94
2024/01/24 12:14:00;;;;;;;13.98;2.03;;;13.00;99.90;;;;;;4894396;24;20165;-95
2024/01/24 12:16:58;;;;;;;14.52;1.98;;;13.00;99.90;;;;;;4917679;24;20190;-95
2024/01/24 12:23:33;;;;;;;10.43;2.58;;;13.20;99.90;;;;;;4919284;24;20210;-94
2024/01/24 12:26:27;;;;;;;;;;;;;;;;;;;;;
2024/01/24 12:29:42;;;;;;;25.90;2.92;;;13.00;99.90;;;;;;4933615;24;20181;-94
2024/01/24 12:32:27;;;;;;;;;;;;;;;;;;;;;
2024/01/24 12:35:27;;;;;;;;;;;;;;;;;;;;;
2024/01/24 12:38:19;;;;;;;11.02;1.52;;;13.00;99.90;;;;;;5036753;23;20228;-95
2024/01/24 12:41:08;;;;;;;14.07;2.08;;;13.10;99.90;;;;;;5012361;23;20252;-94
2024/01/24 12:43:28;;;;;;;23.77;1.92;;;13.00;99.90;;;;;;5019555;23;20158;-95
2024/01/24 12:45:36;;;;;;;11.23;2.72;;;13.20;99.90;;;;;;5083795;23;20174;-95
2024/01/24 12:48:22;;;;;;;14.00;2.72;;;13.10;99.90;;;;;;5085147;23;20161;-95
2024/01/24 12:51:06;;;;;;;16.10;4.10;;;13.10;99.90;;;;;;5030849;23;20166;-95
2024/01/24 12:53:55;;;;;;;15.45;3.92;;;12.90;99.90;;;;;;4939585;24;20194;-95
2024/01/24 12:59:52;;;;;;;17.45;1.83;;;12.90;99.90;;;;;;4967585;24;20167;-94
2024/01/24 13:02:16;;;;;;;;;;;;;;;;;;;;;
2024/01/24 13:04:45;;;;;;;9.77;1.80;;;13.00;99.90;;;;;;4948312;24;20157;-94
2024/01/24 13:07:59;;;;;;;13.68;2.03;;;13.10;99.90;;;;;;4928671;24;20209;-93
2024/01/24 13:10:03;;;;;;;6.90;1.38;;;13.40;99.90;;;;;;4924943;24;20289;-94
2024/01/24 13:24:04;;;;;;;18.95;2.20;;;12.80;99.90;;;;;;4873723;24;20174;-95
2024/01/24 13:26:42;;;;;;;;;;;;;;;;;;;;;
2024/01/24 13:29:39;;;;;;;;;;;;;;;;;;;;;
2024/01/24 13:35:00;;;;;;;16.95;3.22;;;12.80;99.90;;;;;;4929880;24;20225;-94
2024/01/24 13:37:52;;;;;;;21.10;4.65;;;12.60;99.90;;;;;;4938087;23;20247;-95
2024/01/24 13:39:53;;;;;;;11.95;2.80;;;12.80;99.90;;;;;;4983360;23;20198;-95
2024/01/24 13:41:54;;;;;;;19.17;3.30;;;13.00;99.90;;;;;;4984644;23;20161;-94
2024/01/24 13:44:41;;;;;;;13.57;2.83;;;13.00;99.90;;;;;;4961499;23;20168;-94
2024/01/24 13:47:37;;;;;;;9.88;1.85;;;12.90;99.90;;;;;;4992353;23;20342;-94
2024/01/24 13:49:51;;;;;;;9.18;1.77;;;12.70;99.90;;;;;;4987475;23;20223;-96
2024/01/24 13:51:55;;;;;;;16.67;1.52;;;12.80;99.90;;;;;;4981404;23;20160;-92
2024/01/24 13:54:33;;;;;;;16.08;2.90;;;13.00;99.90;;;;;;4987166;23;20160;-94
2024/01/24 13:57:08;;;;;;;;;;;;;;;;;;;;;
2024/01/24 13:59:54;;;;;;;17.10;1.77;;;12.70;99.90;;;;;;5011527;23;20166;-94
2024/01/24 14:02:54;;;;;;;;;;;;;;;;;;;;;
2024/01/24 14:06:09;;;;;;;15.18;2.28;;;12.70;99.90;;;;;;4984587;23;20164;-95
2024/01/24 14:07:52;;;;;;;19.63;1.90;;;12.80;99.90;;;;;;5034222;23;20233;-93
2024/01/24 14:10:32;;;;;;;18.45;2.40;;;12.70;99.90;;;;;;5051459;23;20155;-94
2024/01/24 14:13:16;;;;;;;;;;;;;;;;;;;;;
2024/01/24 14:16:13;;;;;;;16.33;2.67;;;12.70;99.90;;;;;;5053440;23;20216;-94
2024/01/24 14:20:53;;;;;;;15.45;3.40;;;12.70;99.90;;;;;;4966865;24;20170;-95
2024/01/24 14:23:00;;;;;;;13.73;4.10;;;12.60;99.90;;;;;;4982876;23;20219;-95
2024/01/24 14:25:47;;;;;;;15.50;3.42;;;12.50;99.90;;;;;;4988527;23;20180;-95
2024/01/24 14:30:55;;;;;;;18.80;3.90;;;12.20;99.90;;;;;;4941756;24;20648;-94
2024/01/24 14:39:39;;;;;;;13.57;2.95;;;12.10;99.90;;;;;;4897678;23;20259;-94
2024/01/24 14:41:43;;;;;;;10.50;1.98;;;12.30;99.90;;;;;;5033251;23;20195;-94
2024/01/24 14:43:46;;;;;;;15.65;3.90;;;12.20;99.90;;;;;;5054497;23;20493;-93
2024/01/24 14:47:00;;;;;;;25.45;4.22;;;12.30;99.90;;;;;;5036502;23;20210;-96
2024/01/24 14:50:01;;;;;;;;;;;;;;;;;;;;;
2024/01/24 14:52:39;;;;;;;15.27;2.80;;;12.20;99.90;;;;;;4989212;23;20234;-94
2024/01/24 14:55:09;;;;;;;21.65;2.63;;;12.10;99.90;;;;;;4965564;24;20521;-96
2024/01/24 14:57:41;;;;;;;27.83;3.83;;;11.90;99.90;;;;;;4995312;23;20201;-95
2024/01/24 15:00:19;;;;;;;13.50;2.42;;;11.90;99.90;;;;;;5053804;23;20190;-93